Flight Track Log - Related Links

Times and Time Zones

All times are in EDT time to prevent confusion due to time zone crossing. See the SKW6330 flight status page for this flight to view local times or setup timezone preferences in your user account.

Time Position Orientation Groundspeed Altitude Reporting Facility
EDT Latitude Longitude Course Direction KTS MPH feet Rate Location/Type
Tue 07:44:47 PM 33.9500 -118.4500 335° Northwest 150 173 1,600  Level Southern California TRACON
Tue 07:46:00 PM 33.9578 -118.5250 277° West 174 200 3,500 1,644 Climbing Los Angeles Center
Tue 07:47:00 PM 34.1354 -118.5014 331° Northwest  Level FlightAware Approximate
Tue 07:47:02 PM 33.9872 -118.5831 301° West 187 215 5,300  Level Los Angeles Center
Tue 07:48:00 PM 34.2044 -118.5439 338° Northwest  Level FlightAware Approximate
Tue 07:48:04 PM 34.0214 -118.6317 310° West 201 231 6,600  Level Los Angeles Center
Tue 07:49:00 PM 34.2741 -118.5787 338° Northwest  Level FlightAware Approximate
Tue 07:49:06 PM 34.0814 -118.6281 North 219 252 7,000  Level Los Angeles Center
Tue 07:50:00 PM 34.3343 -118.6098 335° Northwest  Level FlightAware Approximate
Tue 07:50:08 PM 34.1478 -118.6264 North 226 260 7,100  Level Los Angeles Center
Tue 07:51:22 PM 34.2083 -118.6208 North 221 254 8,700 1,368 Climbing Los Angeles Center
Tue 07:52:24 PM 34.2756 -118.6122 North 205 236 10,200 1,306 Climbing Los Angeles Center
Tue 07:53:26 PM 34.3344 -118.6228 352° North 217 250 11,400 1,306 Climbing Los Angeles Center
Tue 07:54:28 PM 34.3881 -118.6525 335° Northwest 213 245 12,900 1,258 Climbing Los Angeles Center
Tue 07:55:30 PM 34.4536 -118.6883 336° Northwest 216 249 14,000 532 Climbing Los Angeles Center
Tue 07:56:32 PM 34.5167 -118.7169 340° North 242 278 14,000  Level Los Angeles Center
Tue 07:57:34 PM 34.5800 -118.7469 339° North 247 284 14,000 537 Level Los Angeles Center
Tue 07:58:35 PM 34.6286 -118.7706 338° Northwest 238 274 15,100 968 Climbing Los Angeles Center
Tue 07:59:38 PM 34.6925 -118.8067 335° Northwest 210 242 16,000 432 Climbing Los Angeles Center
Tue 08:00:40 PM 34.7558 -118.8375 338° Northwest 243 280 16,000 242 Level Los Angeles Center
Tue 08:01:42 PM 34.8322 -118.8667 343° North 241 277 16,500 823 Climbing Los Angeles Center
Tue 08:02:44 PM 34.8908 -118.8728 355° North 216 249 17,700 968 Climbing Los Angeles Center
Tue 08:03:46 PM 34.9447 -118.8794 354° North 208 239 18,500 823 Climbing Los Angeles Center
Tue 08:04:48 PM 35.0028 -118.8875 354° North 211 243 19,400 1,016 Climbing Los Angeles Center
Tue 08:05:50 PM 35.0750 -118.8972 354° North 215 247 20,600 968 Climbing Los Angeles Center
Tue 08:06:52 PM 35.1317 -118.9056 353° North 210 242 21,400 677 Climbing Los Angeles Center
Tue 08:07:54 PM 35.1906 -118.9153 352° North 213 245 22,000 290 Climbing Los Angeles Center
Tue 08:08:56 PM 35.2558 -118.9244 353° North 232 267 22,000  Level Los Angeles Center
Tue 08:09:58 PM 35.3203 -118.9339 353° North 234 269 22,000  Level Los Angeles Center
Tue 08:11:00 PM 35.3956 -118.9456 353° North 229 264 22,000  Level Los Angeles Center
Tue 08:12:02 PM 35.4594 -118.9556 353° North 230 265 22,000 -48 Level Los Angeles Center
Tue 08:13:04 PM 35.5236 -118.9639 354° North 232 267 21,900  Descending Los Angeles Center
Tue 08:14:06 PM 35.5886 -118.9739 353° North 234 269 22,000 48 Climbing Los Angeles Center
Tue 08:15:08 PM 35.6508 -118.9833 353° North 228 262 22,000  Level Los Angeles Center
Tue 08:16:10 PM 35.7133 -118.9928 353° North 228 262 22,000 -48 Level Los Angeles Center
Tue 08:17:12 PM 35.7908 -119.0050 353° North 233 268 21,900 -629 Descending Los Angeles Center
Tue 08:18:14 PM 35.8575 -119.0117 355° North 239 275 20,700 -1,218 Descending Los Angeles Center
Tue 08:19:25 PM 35.9375 -119.0281 351° North 242 278 19,200 -1,273 Descending Oakland Center
Tue 08:20:26 PM 35.9981 -119.0578 338° Northwest 237 273 17,900 -1,426 Descending Oakland Center
Tue 08:21:27 PM 36.0583 -119.0872 338° Northwest 234 269 16,300 -1,610 Descending Oakland Center
Tue 08:22:29 PM 36.1164 -119.1164 338° Northwest 229 264 14,600 -1,171 Descending Oakland Center
Tue 08:23:30 PM 36.1747 -119.1447 339° North 228 262 13,900 -934 Descending Oakland Center
Tue 08:24:31 PM 36.2300 -119.1708 339° North 220 253 12,700 -1,230 Descending Oakland Center
Tue 08:25:32 PM 36.2839 -119.1942 341° North 213 245 11,400 -1,377 Descending Oakland Center
Tue 08:26:33 PM 36.3500 -119.2267 338° Northwest 214 246 9,900 -1,366 Descending Oakland Center
Tue 08:27:35 PM 36.4028 -119.2514 339° North 204 235 8,600 -1,317 Descending Oakland Center
Tue 08:28:36 PM 36.4558 -119.2789 337° Northwest 205 236 7,200 -1,426 Descending Oakland Center
Tue 08:29:37 PM 36.5092 -119.3044 339° North 206 237 5,700 -1,475 Descending Oakland Center
Tue 08:30:38 PM 36.5581 -119.3383 331° Northwest 202 232 4,200 -829 Descending Oakland Center
Tue 08:31:40 PM 36.5858 -119.3981 300° West 199 229 4,000 -98 Descending Oakland Center
Tue 08:32:41 PM 36.6139 -119.4606 299° West 205 236 4,000 -98 Level Oakland Center
Tue 08:33:42 PM 36.6489 -119.5175 307° West 208 239 3,800 -492 Descending Oakland Center
Tue 08:34:43 PM 36.6867 -119.5669 314° West 199 229 3,000 -787 Descending Oakland Center

Login

Don't have an account? Register now (free) for customized features, flight alerts, and more!